ADDS METAR Data INFO
IDs: Format: Raw Decoded Include TAF

Data at: 2303 UTC 21 Feb 2018

KEMP 212253Z AUTO 04014KT 10SM BKN120 M04/M08 A3045 RMK AO2 SLP333 T10441078
KEMP 212153Z AUTO 02010KT 10SM OVC100 M04/M08 A3046 RMK AO2 SLP336 T10441078
KEMP 212053Z AUTO 02011KT 10SM OVC100 M04/M08 A3047 RMK AO2 SLP340 T10441078 55019
KEMP 211953Z AUTO 02013KT 10SM OVC100 M04/M08 A3046 RMK AO2 SLP337 T10441078
KEMP 211853Z AUTO 02014KT 10SM OVC100 M05/M09 A3049 RMK AO2 SLP347 T10501089
KEMP 211753Z AUTO 36010KT 10SM CLR M06/M09 A3053 RMK AO2 SLP360 T10561089 11056 21106 55010
KEMP 211653Z AUTO 01015KT 10SM CLR M07/M10 A3053 RMK AO2 SLP359 T10671100
KEMP 211553Z AUTO 01012KT 10SM CLR M08/M12 A3055 RMK AO2 SLP366 T10831117
KEMP 211453Z AUTO 36010KT 10SM CLR M09/M13 A3056 RMK AO2 SLP371 T10941128 51023
KEMP 211353Z AUTO 01010KT 10SM CLR M11/M13 A3054 RMK AO2 SLP367 T11061133
KEMP 211253Z AUTO 01012KT 10SM CLR M11/M13 A3051 RMK AO2 SLP353 T11061133
KEMP 210753Z AUTO 35011KT 10SM CLR M09/M12 A3043 RMK AO2 SLP325 T10891117
KEMP 210653Z AUTO 01013KT 10SM CLR M08/M11 A3038 RMK AO2 SLP308 T10831111
KEMP 210553Z AUTO 01012KT 10SM CLR M08/M11 A3038 RMK AO2 SLP306 T10781106 11050 21078 410171078 53021
KEMP 201453Z AUTO 33013G24KT 5SM BR BKN012 OVC026 M04/M06 A2999 RMK AO2 PK WND 33026/1437 UPE1355B35E37FZRAB1355E35 SLP170 P0006 60045 I1003 I3010 T10391056 51040
KEMP 201435Z AUTO 33017G22KT 4SM UP BR BKN013 OVC024 M03/M05 A2997 RMK AO2 UPE1355B35FZRAB1355E35 P0006 I1003 T10331050
KEMP 201429Z AUTO 32015G23KT 2 1/2SM -FZRA BR FEW009 BKN013 OVC024 M03/M05 A2997 RMK AO2 UPE1355FZRAB1355 P0006 I1003 T10331050
KEMP 201426Z AUTO 33016G23KT 1 3/4SM -FZRA BR BKN011 BKN015 OVC024 M03/M04 A2996 RMK AO2 UPE1355FZRAB1355 P0006 I1002 T10281044
KEMP 201423Z AUTO 33018KT 1 3/4SM FZRA BR SCT011 BKN015 OVC024 M03/M04 A2996 RMK AO2 UPE1355FZRAB1355 P0006 I1002 T10281044
KEMP 201420Z AUTO 32017G23KT 2SM FZRA BR BKN011 BKN019 OVC040 M03/M04 A2995 RMK AO2 UPE1355FZRAB1355 P0005 I1002 T10281039
KEMP 201404Z AUTO 33015G21KT 3SM -FZRA BR SCT009 BKN016 OVC021 M02/M03 A2993 RMK AO2 UPE1355FZRAB1355 P0002 I1001 T10221033
KEMP 201401Z AUTO 34016G23KT 3SM FZRA BR SCT009 BKN013 OVC019 M02/M03 A2992 RMK AO2 UPE1355FZRAB1355 P0001 I1001 T10221033
KEMP 201353Z AUTO 34016G23KT 2 1/2SM UP BR SCT007 OVC013 M02/M03 A2994 RMK AO2 WSHFT 1323 LTG DSNT E UPB47FZRAE47 TSB1256E11 PRESRR SLP154 P0018 I1001 T10221033
KEMP 201347Z AUTO 33013G25KT 2 1/2SM UP BR SCT007 OVC013 M02/M03 A2993 RMK AO2 WSHFT 1323 LTG DSNT E UPB47FZRAE47 TSB1256E11 PRESRR P0016 I1001
KEMP 201337Z AUTO 33016G23KT 3SM FZRA BR SCT007 BKN010 OVC070 M02/M03 A2991 RMK AO2 WSHFT 1323 LTG DSNT SE TSB1256E11 PRESRR P0013 I1001 T10221033
KEMP 201332Z AUTO 34012G19KT 2 1/2SM FZRA BR BKN007 BKN013 OVC070 M02/M03 A2990 RMK AO2 LTG DSNT NE-SE TSB1256E11 P0011 I1001 T10221028
KEMP 201311Z AUTO 01011KT 2SM FZRA BR FEW009 BKN055 OVC070 M03/M03 A2990 RMK AO2 LTG DSNT NE-S TSB1256E11 P0004 I1000 T10281033
KEMP 201309Z AUTO 36011KT 1 3/4SM TSFZRA BR FEW009 BKN050 OVC070 M03/M04 A2988 RMK AO2 LTG DSNT ALQDS TSB1256 PRESFR P0004 I1000 T10281039
KEMP 201302Z AUTO 36011KT 1 1/4SM TSFZRA BR FEW007 OVC050 M03/M04 A2989 RMK AO2 LTG DSNT ALQDS TSB1256 PRESFR P0001 I1000 T10331039
KEMP 201255Z AUTO 35012KT 1 1/4SM FZRA BR SCT007 SCT014 OVC048 M03/M04 A2993 RMK AO2 LTG DSNT ALQDS P0000 I1000 T10331044
KEMP 201253Z AUTO 35012G22KT 1 1/2SM FZRA BR SCT007 BKN014 OVC045 M03/M04 A2993 RMK AO2 LTG DSNT ALQDS TSB17E37B38E53 SLP148 P0021 I1006 T10331044
KEMP 201244Z AUTO 32017KT 2 1/2SM TSFZRA BR BKN006 BKN020 OVC030 M03/M04 A2994 RMK AO2 LTG DSNT ALQDS TSB17E37B38 P0018 I1005 T10331044
KEMP 201237Z AUTO 32017G20KT 2SM VCTS FZRA BR BKN006 BKN013 OVC028 M03/M04 A2997 RMK AO2 LTG DSNT ALQDS TSB17E37 P0017 I1005 T10331044
KEMP 201220Z AUTO 32017G24KT 1 3/4SM TSFZRA BR OVC006 M03/M04 A2992 RMK AO2 LTG DSNT S-NW TSB17 P0007 I1003 T10281039
KEMP 201204Z AUTO 33013KT 2 1/2SM VCTS -FZRA BR BKN006 OVC010 M03/M04 A2989 RMK AO2 LTG DSNT SW PRESRR P0000 I1001 T10281039
KEMP 201153Z AUTO 34013KT 2 1/2SM -FZRA BR BKN006 OVC011 M03/M03 A2986 RMK AO2 LTG DSNT SW FZRAB28 SLP127 P0000 60000 70002 I1003 I6013 T10281033 11017 21028 53014
KEMP 201133Z AUTO 34011G18KT 2 1/2SM -FZRA BR BKN006 OVC012 M03/M04 A2987 RMK AO2 FZRAB28 P0000 I1001 T10281039